createdAt,value
2022-11-22T00:02:19.820Z,20.95
2022-11-22T00:06:37.175Z,24.93
2022-11-22T00:10:54.333Z,23.00
2022-11-22T00:15:12.761Z,22.42
2022-11-22T00:19:30.297Z,23.02
2022-11-22T00:23:47.696Z,22.90
2022-11-22T00:28:04.883Z,23.80
2022-11-22T00:32:22.099Z,22.73
2022-11-22T00:36:39.352Z,21.30
2022-11-22T00:40:56.607Z,23.80
2022-11-22T00:45:13.880Z,21.85
2022-11-22T00:49:31.506Z,22.80
2022-11-22T00:53:48.984Z,22.58
2022-11-22T00:58:06.269Z,20.38
2022-11-22T01:02:23.527Z,22.93
2022-11-22T01:06:40.725Z,20.90
2022-11-22T01:11:01.622Z,21.90
2022-11-22T01:15:18.957Z,21.00
2022-11-22T01:19:36.251Z,20.57
2022-11-22T01:23:53.432Z,19.05
2022-11-22T01:28:11.101Z,19.60
2022-11-22T01:32:28.304Z,20.92
2022-11-22T01:36:45.494Z,20.65
2022-11-22T01:41:02.709Z,20.33
2022-11-22T01:45:32.236Z,20.63
2022-11-22T01:49:58.023Z,20.23
2022-11-22T01:54:19.502Z,20.05
2022-11-22T01:58:39.664Z,19.75
2022-11-22T02:03:00.873Z,19.35
2022-11-22T02:07:29.321Z,18.73
2022-11-22T02:16:06.875Z,16.33
2022-11-22T02:20:24.210Z,17.02
2022-11-22T02:24:58.904Z,16.93
2022-11-22T02:29:16.338Z,15.75
2022-11-22T02:33:33.632Z,17.40
2022-11-22T02:37:56.500Z,16.43
2022-11-22T02:42:14.027Z,15.70
2022-11-22T02:46:31.246Z,16.10
2022-11-22T02:50:48.523Z,15.70
2022-11-22T02:55:05.962Z,16.45
2022-11-22T02:59:23.126Z,16.53
2022-11-22T03:03:40.355Z,15.00
2022-11-22T03:07:57.551Z,16.17
2022-11-22T03:12:14.749Z,15.63
2022-11-22T03:16:32.083Z,15.43
2022-11-22T03:20:49.266Z,14.97
2022-11-22T03:25:06.957Z,14.45
2022-11-22T03:29:24.219Z,14.18
2022-11-22T03:33:41.437Z,14.10
2022-11-22T03:37:58.622Z,14.05
2022-11-22T03:42:21.269Z,13.82
2022-11-22T03:46:39.314Z,12.98
2022-11-22T03:51:06.768Z,13.00
2022-11-22T03:55:23.980Z,13.27
2022-11-22T03:59:41.151Z,13.07
2022-11-22T04:03:58.476Z,12.18
2022-11-22T04:08:15.803Z,12.95
2022-11-22T04:12:33.154Z,12.70
2022-11-22T04:16:50.431Z,11.90
2022-11-22T04:21:26.561Z,10.98
2022-11-22T04:25:46.192Z,14.48
2022-11-22T04:30:03.622Z,12.85
2022-11-22T04:34:20.831Z,11.97
2022-11-22T04:38:38.017Z,18.23
2022-11-22T04:43:13.931Z,15.57
2022-11-22T04:47:50.620Z,25.80
2022-11-22T04:52:28.260Z,21.77
2022-11-22T04:56:45.491Z,26.85
2022-11-22T05:01:03.298Z,25.15
2022-11-22T05:05:20.550Z,21.42
2022-11-22T05:09:37.750Z,20.55
2022-11-22T05:13:55.062Z,18.80
2022-11-22T05:18:12.973Z,19.77
2022-11-22T05:22:48.608Z,19.25
2022-11-22T05:27:05.849Z,19.92
2022-11-22T05:31:24.599Z,19.63
2022-11-22T05:35:41.860Z,19.48
2022-11-22T05:39:59.051Z,19.33
2022-11-22T05:44:16.205Z,19.75
2022-11-22T05:48:33.498Z,18.48
2022-11-22T05:52:50.767Z,19.27
2022-11-22T05:57:07.956Z,17.90
2022-11-22T06:01:25.681Z,19.77
2022-11-22T06:05:42.889Z,20.38
2022-11-22T06:10:00.148Z,18.75
2022-11-22T06:14:17.366Z,18.73
2022-11-22T06:18:35.422Z,18.83
2022-11-22T06:22:52.619Z,21.08
2022-11-22T06:27:09.977Z,21.50
2022-11-22T06:31:28.541Z,23.40
2022-11-22T06:35:45.834Z,20.23
2022-11-22T06:40:03.241Z,21.92
2022-11-22T06:44:20.444Z,68.97
2022-11-22T06:48:38.957Z,19.17
2022-11-22T06:52:56.146Z,19.85
2022-11-22T06:57:14.643Z,18.33
2022-11-22T07:01:33.332Z,19.70
2022-11-22T07:05:53.764Z,22.08
2022-11-22T07:10:10.933Z,19.85
2022-11-22T07:14:28.133Z,21.30
2022-11-22T07:18:46.092Z,21.55
2022-11-22T07:23:03.325Z,20.63
2022-11-22T07:27:20.583Z,19.40
2022-11-22T07:31:37.792Z,19.80
2022-11-22T07:35:55.239Z,22.63
2022-11-22T07:40:12.606Z,22.43
2022-11-22T07:44:29.773Z,29.10
2022-11-22T07:48:49.134Z,29.73
2022-11-22T07:53:06.322Z,28.15
2022-11-22T07:57:23.537Z,28.92
2022-11-22T08:01:40.786Z,26.25
2022-11-22T08:06:01.893Z,26.17
2022-11-22T08:10:19.868Z,29.50
2022-11-22T08:14:37.175Z,26.92
2022-11-22T08:18:54.576Z,26.27
2022-11-22T08:23:11.852Z,25.15
2022-11-22T08:27:29.073Z,27.77
2022-11-22T08:31:46.249Z,29.38
2022-11-22T08:36:03.787Z,26.20
2022-11-22T08:40:20.975Z,22.97
2022-11-22T08:44:38.259Z,22.92
2022-11-22T08:48:55.502Z,21.42
2022-11-22T08:53:12.703Z,19.92
2022-11-22T08:57:30.021Z,17.75
2022-11-22T09:01:47.309Z,20.63
2022-11-22T09:10:44.736Z,25.10
2022-11-22T09:15:01.932Z,23.23
2022-11-22T09:19:19.131Z,25.00
2022-11-22T09:23:37.091Z,21.20
2022-11-22T09:27:54.286Z,19.67
2022-11-22T09:32:11.823Z,23.30
2022-11-22T09:36:29.156Z,19.15
2022-11-22T09:40:47.205Z,25.70
2022-11-22T09:45:23.425Z,16.50
2022-11-22T09:49:59.172Z,9.95
2022-11-22T09:54:30.953Z,9.48
2022-11-22T09:59:12.747Z,10.18
2022-11-22T10:04:10.419Z,11.88
2022-11-22T10:08:55.443Z,9.52
2022-11-22T10:13:19.727Z,9.90
2022-11-22T10:18:02.377Z,9.90
2022-11-22T10:22:19.659Z,10.57
2022-11-22T10:26:38.846Z,12.48
2022-11-22T10:31:07.109Z,10.30
2022-11-22T10:35:43.072Z,10.87
2022-11-22T10:40:11.671Z,11.38
2022-11-22T10:44:47.399Z,14.93
2022-11-22T10:49:35.623Z,17.13
2022-11-22T10:54:22.626Z,12.07
2022-11-22T10:58:57.359Z,13.98
2022-11-22T11:03:26.969Z,17.02
2022-11-22T11:07:48.515Z,18.92
2022-11-22T11:12:31.197Z,13.70
2022-11-22T11:16:49.656Z,13.80
2022-11-22T11:21:10.070Z,7.93
2022-11-22T11:25:28.961Z,0.00
2022-11-22T11:29:51.255Z,0.00
2022-11-22T11:34:21.044Z,0.00
2022-11-22T11:38:56.662Z,0.00
2022-11-22T11:43:20.828Z,0.00
2022-11-22T11:47:38.075Z,0.00
2022-11-22T11:51:56.528Z,1.23
2022-11-22T11:56:44.883Z,0.63
2022-11-22T12:01:02.121Z,10.88
2022-11-22T12:05:19.296Z,9.95
2022-11-22T12:09:43.648Z,10.43
2022-11-22T12:14:19.550Z,9.20
2022-11-22T12:19:00.363Z,9.55
2022-11-22T12:23:51.747Z,10.75
2022-11-22T12:28:16.676Z,8.77
2022-11-22T12:32:41.791Z,9.57
2022-11-22T12:37:04.921Z,9.52
2022-11-22T12:41:27.663Z,12.40
2022-11-22T12:45:53.122Z,9.20
2022-11-22T12:50:40.226Z,8.75
2022-11-22T12:55:21.982Z,9.15
2022-11-22T12:59:50.953Z,7.85
2022-11-22T13:08:58.903Z,7.78
2022-11-22T13:13:27.427Z,8.25
2022-11-22T13:17:45.004Z,7.50
2022-11-22T13:22:21.074Z,7.38
2022-11-22T13:26:45.671Z,8.98
2022-11-22T13:31:13.849Z,8.88
2022-11-22T13:35:36.516Z,8.07
2022-11-22T13:39:54.074Z,6.85
2022-11-22T13:44:31.627Z,7.25
2022-11-22T13:48:51.876Z,7.20
2022-11-22T13:53:29.075Z,6.97
2022-11-22T13:57:46.249Z,6.82
2022-11-22T14:02:21.047Z,7.15
2022-11-22T14:06:38.804Z,7.28
2022-11-22T14:10:55.941Z,7.97
2022-11-22T14:15:56.849Z,7.10
2022-11-22T14:20:19.868Z,7.45
2022-11-22T14:24:57.984Z,7.75
2022-11-22T14:29:53.890Z,8.45
2022-11-22T14:34:15.724Z,9.15
2022-11-22T14:38:40.801Z,10.38
2022-11-22T14:43:26.082Z,12.48
2022-11-22T14:47:52.385Z,10.93
2022-11-22T14:52:36.463Z,11.50
2022-11-22T14:56:59.910Z,18.92
2022-11-22T15:01:35.752Z,9.27
2022-11-22T15:09:22.564Z,9.38
2022-11-22T15:11:15.115Z,9.90
2022-11-22T15:58:12.360Z,11.95
2022-11-22T16:02:32.368Z,9.25
2022-11-22T16:06:51.108Z,9.50
2022-11-22T16:15:37.177Z,8.15
2022-11-22T16:20:23.313Z,8.88
2022-11-22T16:24:40.562Z,9.95
2022-11-22T16:29:35.471Z,9.85
2022-11-22T16:33:54.027Z,8.98
2022-11-22T16:38:11.319Z,10.38
2022-11-22T16:42:28.639Z,10.82
2022-11-22T16:46:47.197Z,11.55
2022-11-22T16:55:22.742Z,13.02
2022-11-22T16:59:39.983Z,13.57
2022-11-22T17:03:58.223Z,13.10
2022-11-22T17:08:17.904Z,13.70
2022-11-22T17:12:35.290Z,15.32
2022-11-22T17:16:52.628Z,18.17
2022-11-22T17:21:37.074Z,17.73
2022-11-22T17:25:54.951Z,18.63
2022-11-22T17:30:12.663Z,19.17
2022-11-22T17:34:30.241Z,17.33
2022-11-22T17:38:47.657Z,16.50
2022-11-22T17:43:04.896Z,16.00
2022-11-22T17:47:22.167Z,16.38
2022-11-22T17:51:39.465Z,16.38
2022-11-22T17:56:10.041Z,15.70
2022-11-22T18:00:30.283Z,16.23
2022-11-22T18:04:47.757Z,16.17
2022-11-22T18:09:05.060Z,14.93
2022-11-22T18:13:22.640Z,14.60
2022-11-22T18:17:39.891Z,15.47
2022-11-22T18:21:57.123Z,15.77
2022-11-22T18:26:38.264Z,15.60
2022-11-22T18:30:53.322Z,15.50
2022-11-22T18:35:10.572Z,14.35
2022-11-22T18:39:30.458Z,13.38
2022-11-22T18:43:48.378Z,13.63
2022-11-22T18:48:06.707Z,14.60
2022-11-22T18:52:24.567Z,14.00
2022-11-22T18:56:41.814Z,21.10
2022-11-22T19:00:59.322Z,17.15
2022-11-22T19:05:18.281Z,17.80
2022-11-22T19:09:37.098Z,15.48
2022-11-22T19:13:54.298Z,14.07
2022-11-22T19:18:13.193Z,13.15
2022-11-22T19:22:30.691Z,14.48
2022-11-22T19:26:47.867Z,13.23
2022-11-22T19:31:11.684Z,13.27
2022-11-22T19:35:28.912Z,14.73
2022-11-22T19:39:48.531Z,18.35
2022-11-22T19:44:05.813Z,13.50
2022-11-22T19:48:23.132Z,13.35
2022-11-22T19:52:40.340Z,14.35
2022-11-22T19:56:58.011Z,12.85
2022-11-22T20:01:16.604Z,15.00
2022-11-22T20:05:34.281Z,11.80
2022-11-22T20:09:51.446Z,11.27
2022-11-22T20:14:09.441Z,12.52
2022-11-22T20:18:26.718Z,14.85
2022-11-22T20:22:43.987Z,15.55
2022-11-22T20:27:02.498Z,16.75
2022-11-22T20:31:20.415Z,15.07
2022-11-22T20:35:37.596Z,14.30
2022-11-22T20:39:54.794Z,16.40
2022-11-22T20:44:13.706Z,14.43
2022-11-22T20:48:31.956Z,13.07
2022-11-22T20:52:49.422Z,13.50
2022-11-22T20:57:06.621Z,12.00
2022-11-22T21:01:26.683Z,11.75
2022-11-22T21:05:50.359Z,11.15
2022-11-22T21:10:07.876Z,11.77
2022-11-22T21:14:25.066Z,12.40
2022-11-22T21:18:42.306Z,12.18
2022-11-22T21:22:59.792Z,12.32
2022-11-22T21:27:16.990Z,14.55
2022-11-22T21:31:34.185Z,14.07
2022-11-22T21:35:52.524Z,14.10
2022-11-22T21:44:27.246Z,17.30
2022-11-22T21:48:44.435Z,17.52
2022-11-22T21:53:01.943Z,21.08
2022-11-22T21:57:19.099Z,24.98
2022-11-22T22:01:36.602Z,13.35
2022-11-22T22:05:53.872Z,12.67
2022-11-22T22:10:12.134Z,10.98
2022-11-22T22:18:47.112Z,10.80
2022-11-22T22:23:04.333Z,11.80
2022-11-22T22:27:21.506Z,10.57
2022-11-22T22:31:38.713Z,10.68
2022-11-22T22:35:57.107Z,11.60
2022-11-22T22:40:15.041Z,11.80
2022-11-22T22:44:32.723Z,11.25
2022-11-22T22:48:50.459Z,12.37
2022-11-22T22:53:07.774Z,12.17
2022-11-22T22:57:24.956Z,11.18
2022-11-22T23:01:42.139Z,11.05
2022-11-22T23:05:59.570Z,11.82
2022-11-22T23:10:16.874Z,11.27
2022-11-22T23:14:34.072Z,11.23
2022-11-22T23:18:51.238Z,12.95
2022-11-22T23:23:08.459Z,11.32
2022-11-22T23:27:25.684Z,14.05
2022-11-22T23:31:42.880Z,14.50
2022-11-22T23:36:08.893Z,16.55
2022-11-22T23:40:26.307Z,13.75
2022-11-22T23:44:43.542Z,15.32
2022-11-22T23:49:01.769Z,15.88
2022-11-22T23:53:19.072Z,14.38
2022-11-22T23:57:36.249Z,13.82
